Terminal Aerodrome Forecast
Issued by NWS Portland, OR

Home | Current Version | Previous Version | Text Only | Print | Product List | Glossary On
Versions: 1 2 3 4 5 6 7 8 9 10 11 12 13 14 15 16 17 18 19 20 21 22 23 24 25 26 27 28 29 30
626
FTUS46 KPQR 130005 AAA
TAFHIO
TAF AMD
KHIO 130005Z 1300/1324 00000KT P6SM SCT250
     FM131300 00000KT 3SM MIFG FEW002 SCT250
     FM131500 00000KT 1/2SM FZFG VV002
     FM131800 00000KT 2SM BR FEW002 SCT250
     FM131900 00000KT 6SM BR SCT250=

USA.gov is the U.S. government's official web portal to all federal, state and local government web resources and services.